sensor_id;sensor_type;location;lat;lon;timestamp;pressure;altitude;pressure_sealevel;temperature;humidity
25610;BME280;13479;49.044;8.716;2023-04-29T04:01:21;98874.44;;;12.80;100.00
25610;BME280;13479;49.044;8.716;2023-04-29T04:03:47;98881.94;;;12.94;100.00
25610;BME280;13479;49.044;8.716;2023-04-29T04:06:12;98890.22;;;13.09;100.00
25610;BME280;13479;49.044;8.716;2023-04-29T04:08:37;98902.50;;;13.20;100.00
25610;BME280;13479;49.044;8.716;2023-04-29T04:11:05;98896.50;;;13.18;100.00
25610;BME280;13479;49.044;8.716;2023-04-29T04:13:31;98904.84;;;13.23;100.00
25610;BME280;13479;49.044;8.716;2023-04-29T04:15:56;98906.91;;;13.29;100.00
25610;BME280;13479;49.044;8.716;2023-04-29T04:18:21;98899.09;;;13.28;100.00
25610;BME280;13479;49.044;8.716;2023-04-29T04:20:47;98899.22;;;13.26;100.00
25610;BME280;13479;49.044;8.716;2023-04-29T04:23:12;98892.75;;;13.11;100.00
25610;BME280;13479;49.044;8.716;2023-04-29T04:25:38;98895.44;;;13.11;100.00
25610;BME280;13479;49.044;8.716;2023-04-29T04:28:03;98899.97;;;13.01;100.00
25610;BME280;13479;49.044;8.716;2023-04-29T04:30:28;98896.94;;;12.95;100.00
25610;BME280;13479;49.044;8.716;2023-04-29T04:32:54;98901.81;;;13.00;100.00
25610;BME280;13479;49.044;8.716;2023-04-29T04:35:19;98899.13;;;13.00;100.00
25610;BME280;13479;49.044;8.716;2023-04-29T04:37:44;98902.63;;;13.01;100.00
25610;BME280;13479;49.044;8.716;2023-04-29T04:40:10;98908.34;;;13.06;100.00
25610;BME280;13479;49.044;8.716;2023-04-29T04:42:36;98907.38;;;13.07;100.00
25610;BME280;13479;49.044;8.716;2023-04-29T04:45:01;98900.59;;;13.12;100.00
25610;BME280;13479;49.044;8.716;2023-04-29T04:47:27;98914.28;;;13.18;100.00
25610;BME280;13479;49.044;8.716;2023-04-29T04:49:52;98899.38;;;13.25;100.00
25610;BME280;13479;49.044;8.716;2023-04-29T04:52:21;98896.78;;;13.33;100.00
25610;BME280;13479;49.044;8.716;2023-04-29T04:54:46;98900.41;;;13.42;100.00
25610;BME280;13479;49.044;8.716;2023-04-29T04:57:12;98917.44;;;13.49;100.00
25610;BME280;13479;49.044;8.716;2023-04-29T04:59:37;98922.06;;;13.65;100.00
25610;BME280;13479;49.044;8.716;2023-04-29T05:02:02;98938.16;;;13.73;100.00
25610;BME280;13479;49.044;8.716;2023-04-29T05:04:28;98941.41;;;13.85;100.00
25610;BME280;13479;49.044;8.716;2023-04-29T05:06:53;98946.84;;;14.02;100.00
25610;BME280;13479;49.044;8.716;2023-04-29T05:09:18;98953.78;;;14.13;100.00
25610;BME280;13479;49.044;8.716;2023-04-29T05:11:43;98942.94;;;14.14;100.00
25610;BME280;13479;49.044;8.716;2023-04-29T05:14:09;98935.28;;;14.19;100.00
25610;BME280;13479;49.044;8.716;2023-04-29T05:16:34;98939.00;;;14.27;99.57
25610;BME280;13479;49.044;8.716;2023-04-29T05:18:59;98929.09;;;14.19;98.71
25610;BME280;13479;49.044;8.716;2023-04-29T05:21:25;98914.94;;;14.18;98.63
25610;BME280;13479;49.044;8.716;2023-04-29T05:23:50;98921.03;;;14.37;97.44
25610;BME280;13479;49.044;8.716;2023-04-29T05:26:15;98915.03;;;14.35;95.37
25610;BME280;13479;49.044;8.716;2023-04-29T05:28:40;98904.72;;;14.48;95.31
25610;BME280;13479;49.044;8.716;2023-04-29T05:31:06;98910.78;;;14.59;94.02
25610;BME280;13479;49.044;8.716;2023-04-29T05:33:31;98906.84;;;14.71;93.85
25610;BME280;13479;49.044;8.716;2023-04-29T05:35:56;98902.16;;;15.74;94.36
25610;BME280;13479;49.044;8.716;2023-04-29T05:38:21;98927.59;;;16.59;92.70
25610;BME280;13479;49.044;8.716;2023-04-29T05:40:53;98905.63;;;16.95;89.84
25610;BME280;13479;49.044;8.716;2023-04-29T05:43:18;98902.28;;;16.93;84.47
25610;BME280;13479;49.044;8.716;2023-04-29T05:45:46;98861.75;;;16.88;81.60
25610;BME280;13479;49.044;8.716;2023-04-29T05:48:11;98837.41;;;16.66;80.85
25610;BME280;13479;49.044;8.716;2023-04-29T05:50:36;98798.34;;;16.49;82.44
25610;BME280;13479;49.044;8.716;2023-04-29T05:53:01;98846.03;;;16.54;80.86
25610;BME280;13479;49.044;8.716;2023-04-29T05:55:27;98854.09;;;16.45;80.70
25610;BME280;13479;49.044;8.716;2023-04-29T05:57:52;98869.25;;;18.01;79.24
25610;BME280;13479;49.044;8.716;2023-04-29T06:00:17;98887.97;;;19.49;75.34
25610;BME280;13479;49.044;8.716;2023-04-29T06:02:42;98878.31;;;20.12;72.01
25610;BME280;13479;49.044;8.716;2023-04-29T06:05:09;98890.28;;;20.37;67.74
25610;BME280;13479;49.044;8.716;2023-04-29T06:07:35;98846.50;;;20.00;66.76
25610;BME280;13479;49.044;8.716;2023-04-29T06:10:01;98855.59;;;19.64;65.67
25610;BME280;13479;49.044;8.716;2023-04-29T06:12:26;98851.75;;;19.08;64.76
25610;BME280;13479;49.044;8.716;2023-04-29T06:14:52;98855.13;;;18.59;64.58
25610;BME280;13479;49.044;8.716;2023-04-29T06:17:19;98815.84;;;18.06;65.91
25610;BME280;13479;49.044;8.716;2023-04-29T06:19:44;98772.72;;;17.69;66.78
25610;BME280;13479;49.044;8.716;2023-04-29T06:22:09;98739.75;;;17.31;67.84
25610;BME280;13479;49.044;8.716;2023-04-29T06:24:35;98686.72;;;17.03;69.02
25610;BME280;13479;49.044;8.716;2023-04-29T06:27:00;98659.31;;;16.69;70.79
25610;BME280;13479;49.044;8.716;2023-04-29T06:29:26;98673.41;;;16.48;71.74
25610;BME280;13479;49.044;8.716;2023-04-29T06:31:51;98703.66;;;16.33;71.75
25610;BME280;13479;49.044;8.716;2023-04-29T06:34:18;98701.25;;;16.15;72.28
25610;BME280;13479;49.044;8.716;2023-04-29T06:36:44;98723.88;;;16.04;72.45
25610;BME280;13479;49.044;8.716;2023-04-29T06:39:09;98739.31;;;15.94;71.69
25610;BME280;13479;49.044;8.716;2023-04-29T06:41:34;98741.03;;;15.87;72.56
25610;BME280;13479;49.044;8.716;2023-04-29T06:44:00;98729.34;;;15.71;73.23
25610;BME280;13479;49.044;8.716;2023-04-29T06:46:26;98746.44;;;15.70;73.52
25610;BME280;13479;49.044;8.716;2023-04-29T06:48:53;98756.81;;;15.65;73.52
25610;BME280;13479;49.044;8.716;2023-04-29T06:51:18;98775.69;;;15.72;72.90
25610;BME280;13479;49.044;8.716;2023-04-29T06:53:43;98775.19;;;15.60;73.86
25610;BME280;13479;49.044;8.716;2023-04-29T06:56:09;98772.41;;;15.53;74.55
25610;BME280;13479;49.044;8.716;2023-04-29T06:58:34;98790.97;;;15.38;75.43
25610;BME280;13479;49.044;8.716;2023-04-29T07:00:59;98809.16;;;15.43;75.20
25610;BME280;13479;49.044;8.716;2023-04-29T07:03:24;98829.09;;;15.32;74.86
25610;BME280;13479;49.044;8.716;2023-04-29T07:05:50;98822.91;;;15.15;75.54
25610;BME280;13479;49.044;8.716;2023-04-29T07:08:15;98836.91;;;15.09;75.24
25610;BME280;13479;49.044;8.716;2023-04-29T07:10:41;98828.41;;;15.05;75.97
25610;BME280;13479;49.044;8.716;2023-04-29T07:13:06;98839.28;;;15.12;75.94
25610;BME280;13479;49.044;8.716;2023-04-29T07:15:35;98852.63;;;15.20;76.17
25610;BME280;13479;49.044;8.716;2023-04-29T07:18:03;98892.09;;;15.26;74.67
25610;BME280;13479;49.044;8.716;2023-04-29T07:20:29;98913.50;;;15.35;74.67
25610;BME280;13479;49.044;8.716;2023-04-29T07:22:54;98922.38;;;15.43;74.82
25610;BME280;13479;49.044;8.716;2023-04-29T07:25:19;98916.69;;;15.55;75.28
25610;BME280;13479;49.044;8.716;2023-04-29T07:27:45;98937.75;;;15.66;74.30
25610;BME280;13479;49.044;8.716;2023-04-29T07:30:10;98987.44;;;15.77;73.16
25610;BME280;13479;49.044;8.716;2023-04-29T07:32:35;98988.47;;;15.76;72.85
25610;BME280;13479;49.044;8.716;2023-04-29T07:35:01;98985.59;;;15.69;72.34
25610;BME280;13479;49.044;8.716;2023-04-29T07:37:26;98981.09;;;15.53;72.39
25610;BME280;13479;49.044;8.716;2023-04-29T07:39:52;98957.50;;;15.65;72.66
25610;BME280;13479;49.044;8.716;2023-04-29T07:42:17;98958.19;;;15.59;72.88
25610;BME280;13479;49.044;8.716;2023-04-29T07:44:43;98962.88;;;15.82;72.53
25610;BME280;13479;49.044;8.716;2023-04-29T07:47:10;98949.50;;;15.90;73.26
25610;BME280;13479;49.044;8.716;2023-04-29T07:49:35;98957.50;;;16.06;72.72
25610;BME280;13479;49.044;8.716;2023-04-29T07:52:00;99009.34;;;16.39;71.17
25610;BME280;13479;49.044;8.716;2023-04-29T07:54:26;99015.72;;;16.38;70.27
25610;BME280;13479;49.044;8.716;2023-04-29T07:56:51;99036.63;;;16.50;67.36
25610;BME280;13479;49.044;8.716;2023-04-29T07:59:17;99025.00;;;16.83;66.28
25610;BME280;13479;49.044;8.716;2023-04-29T08:01:42;98977.03;;;16.88;67.65
25610;BME280;13479;49.044;8.716;2023-04-29T08:04:07;99003.06;;;17.19;66.05
25610;BME280;13479;49.044;8.716;2023-04-29T08:06:33;98994.88;;;17.44;65.91
25610;BME280;13479;49.044;8.716;2023-04-29T08:08:59;99000.50;;;17.57;64.56
25610;BME280;13479;49.044;8.716;2023-04-29T08:11:24;98987.34;;;17.63;64.04
25610;BME280;13479;49.044;8.716;2023-04-29T08:13:51;98994.28;;;17.80;62.71
25610;BME280;13479;49.044;8.716;2023-04-29T08:16:16;98986.13;;;17.73;62.46
25610;BME280;13479;49.044;8.716;2023-04-29T08:18:42;98978.00;;;17.35;62.85
25610;BME280;13479;49.044;8.716;2023-04-29T08:21:07;98964.22;;;17.38;62.43
25610;BME280;13479;49.044;8.716;2023-04-29T08:23:35;98959.41;;;17.34;62.53
25610;BME280;13479;49.044;8.716;2023-04-29T08:26:01;98954.09;;;17.25;62.44
25610;BME280;13479;49.044;8.716;2023-04-29T08:28:27;98974.31;;;17.05;62.48
25610;BME280;13479;49.044;8.716;2023-04-29T08:30:53;98963.16;;;16.85;62.86
25610;BME280;13479;49.044;8.716;2023-04-29T08:33:18;98907.72;;;16.77;63.95
25610;BME280;13479;49.044;8.716;2023-04-29T08:35:43;98849.69;;;16.84;64.77
25610;BME280;13479;49.044;8.716;2023-04-29T08:38:09;98846.63;;;16.95;64.21
25610;BME280;13479;49.044;8.716;2023-04-29T08:40:41;98864.06;;;17.00;64.35
25610;BME280;13479;49.044;8.716;2023-04-29T08:43:07;98852.91;;;17.11;64.37
25610;BME280;13479;49.044;8.716;2023-04-29T08:45:34;98909.53;;;17.39;63.23
25610;BME280;13479;49.044;8.716;2023-04-29T08:48:00;98929.88;;;17.57;63.63
25610;BME280;13479;49.044;8.716;2023-04-29T08:50:26;98985.47;;;17.71;62.71
25610;BME280;13479;49.044;8.716;2023-04-29T08:52:52;99005.75;;;18.35;61.76
25610;BME280;13479;49.044;8.716;2023-04-29T08:55:18;99042.53;;;19.03;58.44
25610;BME280;13479;49.044;8.716;2023-04-29T08:57:45;99029.53;;;19.07;57.19
25610;BME280;13479;49.044;8.716;2023-04-29T09:00:14;99002.81;;;19.05;58.09
25610;BME280;13479;49.044;8.716;2023-04-29T09:02:43;99012.53;;;19.21;57.51
25610;BME280;13479;49.044;8.716;2023-04-29T09:05:09;99014.38;;;19.36;56.96
25610;BME280;13479;49.044;8.716;2023-04-29T09:07:38;99003.78;;;19.34;56.96
25610;BME280;13479;49.044;8.716;2023-04-29T09:10:04;99005.72;;;19.25;56.42
25610;BME280;13479;49.044;8.716;2023-04-29T09:12:30;99004.38;;;19.14;55.90
25610;BME280;13479;49.044;8.716;2023-04-29T09:14:56;98976.75;;;19.06;56.54
25610;BME280;13479;49.044;8.716;2023-04-29T09:17:42;98982.69;;;19.01;56.70
25610;BME280;13479;49.044;8.716;2023-04-29T09:22:47;98997.00;;;19.02;56.25
25610;BME280;13479;49.044;8.716;2023-04-29T09:25:13;99017.09;;;18.91;55.30
25610;BME280;13479;49.044;8.716;2023-04-29T09:27:38;99015.72;;;18.80;55.62
25610;BME280;13479;49.044;8.716;2023-04-29T09:30:04;98981.75;;;18.64;56.69
25610;BME280;13479;49.044;8.716;2023-04-29T09:32:29;98985.38;;;18.71;56.16
25610;BME280;13479;49.044;8.716;2023-04-29T09:34:55;98961.94;;;18.80;56.52
25610;BME280;13479;49.044;8.716;2023-04-29T09:37:25;98980.75;;;18.65;57.05
25610;BME280;13479;49.044;8.716;2023-04-29T09:39:52;99029.06;;;18.73;55.36
25610;BME280;13479;49.044;8.716;2023-04-29T09:42:17;98977.41;;;18.48;56.82
25610;BME280;13479;49.044;8.716;2023-04-29T09:44:43;98932.00;;;18.23;57.61
25610;BME280;13479;49.044;8.716;2023-04-29T09:47:09;98937.41;;;18.00;57.10
25610;BME280;13479;49.044;8.716;2023-04-29T09:49:40;98985.09;;;17.74;56.35
25610;BME280;13479;49.044;8.716;2023-04-29T09:52:08;99032.78;;;17.49;55.44
25610;BME280;13479;49.044;8.716;2023-04-29T09:54:35;99023.25;;;17.07;56.33
25610;BME280;13479;49.044;8.716;2023-04-29T09:57:02;99016.00;;;16.67;56.30
25610;BME280;13479;49.044;8.716;2023-04-29T09:59:32;98964.47;;;16.49;56.99
25610;BME280;13479;49.044;8.716;2023-04-29T10:02:00;98917.34;;;16.15;58.19
25610;BME280;13479;49.044;8.716;2023-04-29T10:04:28;98944.63;;;16.02;56.97
25610;BME280;13479;49.044;8.716;2023-04-29T10:06:57;98913.00;;;15.81;57.58
25610;BME280;13479;49.044;8.716;2023-04-29T10:09:24;98891.94;;;15.69;57.98
25610;BME280;13479;49.044;8.716;2023-04-29T10:11:51;98853.81;;;15.42;59.13
25610;BME280;13479;49.044;8.716;2023-04-29T10:14:18;98820.06;;;15.41;59.53
25610;BME280;13479;49.044;8.716;2023-04-29T10:16:49;98828.75;;;15.43;59.14
25610;BME280;13479;49.044;8.716;2023-04-29T10:19:24;98829.75;;;15.42;59.34
25610;BME280;13479;49.044;8.716;2023-04-29T10:21:52;98805.00;;;15.40;60.34
25610;BME280;13479;49.044;8.716;2023-04-29T10:24:20;98828.41;;;15.38;60.05
25610;BME280;13479;49.044;8.716;2023-04-29T10:26:50;98864.69;;;15.16;59.95
25610;BME280;13479;49.044;8.716;2023-04-29T10:29:16;98833.41;;;15.17;60.17
25610;BME280;13479;49.044;8.716;2023-04-29T10:31:42;98829.09;;;14.99;61.32
25610;BME280;13479;49.044;8.716;2023-04-29T10:34:08;98812.88;;;14.92;62.28
25610;BME280;13479;49.044;8.716;2023-04-29T10:36:33;98824.72;;;14.90;62.85
25610;BME280;13479;49.044;8.716;2023-04-29T10:39:02;98851.47;;;14.98;62.43
25610;BME280;13479;49.044;8.716;2023-04-29T10:41:36;98853.97;;;14.91;61.99
25610;BME280;13479;49.044;8.716;2023-04-29T10:44:06;98857.13;;;14.78;62.45
25610;BME280;13479;49.044;8.716;2023-04-29T10:46:32;98833.31;;;14.59;62.86
25610;BME280;13479;49.044;8.716;2023-04-29T10:49:04;98859.22;;;14.66;61.86
25610;BME280;13479;49.044;8.716;2023-04-29T10:51:44;98851.47;;;14.47;62.56
25610;BME280;13479;49.044;8.716;2023-04-29T10:54:14;98842.63;;;14.46;63.34
25610;BME280;13479;49.044;8.716;2023-04-29T10:56:50;98831.66;;;14.58;64.08
25610;BME280;13479;49.044;8.716;2023-04-29T10:59:21;98863.88;;;14.64;63.34
25610;BME280;13479;49.044;8.716;2023-04-29T11:01:51;98858.03;;;14.61;63.73
25610;BME280;13479;49.044;8.716;2023-04-29T11:04:18;98862.53;;;14.60;63.81
25610;BME280;13479;49.044;8.716;2023-04-29T11:14:22;98892.56;;;15.05;62.97
25610;BME280;13479;49.044;8.716;2023-04-29T11:16:51;98889.88;;;15.05;63.64
25610;BME280;13479;49.044;8.716;2023-04-29T11:19:17;98875.03;;;15.11;63.76
25610;BME280;13479;49.044;8.716;2023-04-29T11:21:44;98891.44;;;15.33;62.75
25610;BME280;13479;49.044;8.716;2023-04-29T11:24:10;98927.91;;;15.50;62.47
25610;BME280;13479;49.044;8.716;2023-04-29T11:26:37;98940.41;;;15.50;62.87
25610;BME280;13479;49.044;8.716;2023-04-29T11:29:04;98928.25;;;15.64;62.51
25610;BME280;13479;49.044;8.716;2023-04-29T11:31:30;98949.63;;;15.80;62.46
25610;BME280;13479;49.044;8.716;2023-04-29T11:33:56;99006.03;;;15.95;61.20
25610;BME280;13479;49.044;8.716;2023-04-29T11:36:21;99016.06;;;15.93;61.67
25610;BME280;13479;49.044;8.716;2023-04-29T11:38:47;99039.16;;;16.27;60.68
25610;BME280;13479;49.044;8.716;2023-04-29T11:41:12;99058.88;;;16.51;59.75
25610;BME280;13479;49.044;8.716;2023-04-29T11:43:39;99094.06;;;16.56;58.41
25610;BME280;13479;49.044;8.716;2023-04-29T11:46:11;99070.28;;;16.53;59.48
25610;BME280;13479;49.044;8.716;2023-04-29T11:48:44;99054.06;;;16.55;59.45
25610;BME280;13479;49.044;8.716;2023-04-29T11:51:10;99077.00;;;16.57;58.82
25610;BME280;13479;49.044;8.716;2023-04-29T11:53:36;99059.91;;;16.58;58.88
25610;BME280;13479;49.044;8.716;2023-04-29T11:56:01;99070.88;;;16.88;58.10
25610;BME280;13479;49.044;8.716;2023-04-29T11:58:26;99097.63;;;17.21;56.12
25610;BME280;13479;49.044;8.716;2023-04-29T12:00:52;99066.81;;;17.49;56.91
25610;BME280;13479;49.044;8.716;2023-04-29T12:03:19;99085.91;;;17.54;56.06
25610;BME280;13479;49.044;8.716;2023-04-29T12:05:55;99061.22;;;17.58;56.56
25610;BME280;13479;49.044;8.716;2023-04-29T12:08:25;99079.91;;;17.75;55.57
25610;BME280;13479;49.044;8.716;2023-04-29T12:10:53;99078.09;;;17.99;55.49
25610;BME280;13479;49.044;8.716;2023-04-29T12:13:19;99084.59;;;18.04;54.93
25610;BME280;13479;49.044;8.716;2023-04-29T12:15:45;99094.63;;;18.34;53.14
25610;BME280;13479;49.044;8.716;2023-04-29T12:18:13;99085.78;;;18.48;53.15
25610;BME280;13479;49.044;8.716;2023-04-29T12:20:39;99094.06;;;18.62;51.56
25610;BME280;13479;49.044;8.716;2023-04-29T12:23:15;99077.63;;;18.87;51.90
25610;BME280;13479;49.044;8.716;2023-04-29T12:28:15;99092.06;;;19.24;51.34
25610;BME280;13479;49.044;8.716;2023-04-29T12:30:43;99100.41;;;19.29;49.87
25610;BME280;13479;49.044;8.716;2023-04-29T12:33:08;99099.09;;;19.25;49.13
25610;BME280;13479;49.044;8.716;2023-04-29T12:35:34;99079.63;;;19.23;49.46
25610;BME280;13479;49.044;8.716;2023-04-29T12:37:59;99082.13;;;19.09;49.64
25610;BME280;13479;49.044;8.716;2023-04-29T12:40:25;99087.69;;;19.08;49.41
25610;BME280;13479;49.044;8.716;2023-04-29T12:42:52;99052.53;;;19.09;50.37
25610;BME280;13479;49.044;8.716;2023-04-29T12:45:31;99046.09;;;19.25;49.90
25610;BME280;13479;49.044;8.716;2023-04-29T12:47:57;99066.63;;;19.41;49.20
25610;BME280;13479;49.044;8.716;2023-04-29T12:50:36;99076.91;;;19.53;49.06
25610;BME280;13479;49.044;8.716;2023-04-29T12:53:03;99087.69;;;19.74;48.90
25610;BME280;13479;49.044;8.716;2023-04-29T12:55:31;99092.59;;;19.71;48.30
25610;BME280;13479;49.044;8.716;2023-04-29T12:57:56;99085.34;;;19.50;48.63
25610;BME280;13479;49.044;8.716;2023-04-29T13:00:22;99101.69;;;19.33;47.82
25610;BME280;13479;49.044;8.716;2023-04-29T13:02:47;99078.16;;;19.05;48.87
25610;BME280;13479;49.044;8.716;2023-04-29T13:05:12;99032.41;;;18.90;49.60
25610;BME280;13479;49.044;8.716;2023-04-29T13:07:38;98994.72;;;18.75;50.06
25610;BME280;13479;49.044;8.716;2023-04-29T13:10:04;98971.09;;;18.56;49.98
25610;BME280;13479;49.044;8.716;2023-04-29T13:12:32;98946.00;;;18.33;50.61
25610;BME280;13479;49.044;8.716;2023-04-29T13:14:58;98939.31;;;18.14;50.91
25610;BME280;13479;49.044;8.716;2023-04-29T13:17:23;98903.81;;;18.04;52.50
25610;BME280;13479;49.044;8.716;2023-04-29T13:19:48;98913.16;;;18.08;51.84
25610;BME280;13479;49.044;8.716;2023-04-29T13:22:14;98918.16;;;18.11;51.24
25610;BME280;13479;49.044;8.716;2023-04-29T13:24:40;98931.84;;;18.01;50.91
25610;BME280;13479;49.044;8.716;2023-04-29T13:27:05;98966.00;;;17.93;51.19
25610;BME280;13479;49.044;8.716;2023-04-29T13:29:31;98954.41;;;18.15;50.77
25610;BME280;13479;49.044;8.716;2023-04-29T13:31:56;98987.22;;;18.26;50.22
25610;BME280;13479;49.044;8.716;2023-04-29T13:34:21;99013.34;;;18.32;50.70
25610;BME280;13479;49.044;8.716;2023-04-29T13:36:46;99032.81;;;18.34;50.05
25610;BME280;13479;49.044;8.716;2023-04-29T13:39:12;99068.41;;;18.36;49.08
25610;BME280;13479;49.044;8.716;2023-04-29T13:41:37;99072.78;;;18.37;49.35
25610;BME280;13479;49.044;8.716;2023-04-29T13:44:02;99052.94;;;18.38;49.80
25610;BME280;13479;49.044;8.716;2023-04-29T13:46:28;99074.13;;;18.33;49.66
25610;BME280;13479;49.044;8.716;2023-04-29T13:48:53;99046.44;;;18.09;50.67
25610;BME280;13479;49.044;8.716;2023-04-29T13:51:18;99001.06;;;17.99;51.60
25610;BME280;13479;49.044;8.716;2023-04-29T13:53:43;98997.88;;;17.96;50.71
25610;BME280;13479;49.044;8.716;2023-04-29T13:56:09;98997.88;;;17.96;51.24
25610;BME280;13479;49.044;8.716;2023-04-29T13:58:34;98982.13;;;17.93;51.19
25610;BME280;13479;49.044;8.716;2023-04-29T14:01:00;99006.72;;;18.04;50.14
25610;BME280;13479;49.044;8.716;2023-04-29T14:03:25;99039.16;;;17.95;50.81
25610;BME280;13479;49.044;8.716;2023-04-29T14:05:50;99023.41;;;17.91;51.17
25610;BME280;13479;49.044;8.716;2023-04-29T14:08:16;99036.44;;;18.03;49.80
25610;BME280;13479;49.044;8.716;2023-04-29T14:10:41;99081.03;;;18.12;49.58
25610;BME280;13479;49.044;8.716;2023-04-29T14:13:07;99094.16;;;18.07;49.52
25610;BME280;13479;49.044;8.716;2023-04-29T14:15:32;99112.53;;;18.18;49.52
25610;BME280;13479;49.044;8.716;2023-04-29T14:17:57;99128.16;;;18.23;49.12
25610;BME280;13479;49.044;8.716;2023-04-29T14:20:23;99113.19;;;18.20;49.37
25610;BME280;13479;49.044;8.716;2023-04-29T14:22:48;99117.22;;;18.25;49.28
25610;BME280;13479;49.044;8.716;2023-04-29T14:25:13;99100.31;;;18.39;49.52
25610;BME280;13479;49.044;8.716;2023-04-29T14:27:38;99110.31;;;18.45;49.22
25610;BME280;13479;49.044;8.716;2023-04-29T14:30:04;99114.69;;;18.46;49.42
25610;BME280;13479;49.044;8.716;2023-04-29T14:32:30;99114.59;;;18.55;48.52
25610;BME280;13479;49.044;8.716;2023-04-29T14:34:55;99128.88;;;18.55;48.46
25610;BME280;13479;49.044;8.716;2023-04-29T14:37:20;99127.66;;;18.43;49.33
25610;BME280;13479;49.044;8.716;2023-04-29T14:39:45;99129.59;;;18.49;48.56
25610;BME280;13479;49.044;8.716;2023-04-29T14:42:11;99118.81;;;18.34;49.13
25610;BME280;13479;49.044;8.716;2023-04-29T14:44:37;99100.31;;;18.39;49.48
25610;BME280;13479;49.044;8.716;2023-04-29T14:47:03;99080.31;;;18.57;49.80
25610;BME280;13479;49.044;8.716;2023-04-29T14:49:29;99081.88;;;18.51;49.55
25610;BME280;13479;49.044;8.716;2023-04-29T14:51:54;99069.44;;;18.50;49.68
25610;BME280;13479;49.044;8.716;2023-04-29T14:54:19;99073.78;;;18.36;49.39
25610;BME280;13479;49.044;8.716;2023-04-29T14:56:45;99114.16;;;18.28;49.51
25610;BME280;13479;49.044;8.716;2023-04-29T14:59:10;99099.47;;;18.15;49.60
25610;BME280;13479;49.044;8.716;2023-04-29T15:01:36;99056.13;;;18.18;50.00
25610;BME280;13479;49.044;8.716;2023-04-29T15:04:03;99031.56;;;18.21;50.14
25610;BME280;13479;49.044;8.716;2023-04-29T15:06:30;99081.38;;;18.32;49.54
25610;BME280;13479;49.044;8.716;2023-04-29T15:08:56;99103.78;;;18.25;49.30
25610;BME280;13479;49.044;8.716;2023-04-29T15:11:21;99075.59;;;18.20;49.71
25610;BME280;13479;49.044;8.716;2023-04-29T15:13:47;99109.63;;;18.05;49.08
25610;BME280;13479;49.044;8.716;2023-04-29T15:16:12;99107.31;;;17.94;49.77
25610;BME280;13479;49.044;8.716;2023-04-29T15:18:37;99120.63;;;17.87;49.52
25610;BME280;13479;49.044;8.716;2023-04-29T15:21:02;99076.88;;;17.78;50.23
25610;BME280;13479;49.044;8.716;2023-04-29T15:23:28;99081.97;;;17.73;50.06
25610;BME280;13479;49.044;8.716;2023-04-29T15:25:55;99022.75;;;17.66;51.49
25610;BME280;13479;49.044;8.716;2023-04-29T15:28:20;98984.75;;;17.54;52.26
25610;BME280;13479;49.044;8.716;2023-04-29T15:30:48;98993.16;;;17.51;51.32
25610;BME280;13479;49.044;8.716;2023-04-29T15:33:13;99005.94;;;17.49;51.14
25610;BME280;13479;49.044;8.716;2023-04-29T15:35:39;99027.94;;;17.44;50.89
25610;BME280;13479;49.044;8.716;2023-04-29T15:38:04;98984.34;;;17.34;52.04
25610;BME280;13479;49.044;8.716;2023-04-29T15:40:31;98988.72;;;17.35;51.88
25610;BME280;13479;49.044;8.716;2023-04-29T15:42:56;98989.22;;;17.39;51.18
25610;BME280;13479;49.044;8.716;2023-04-29T15:45:21;98999.97;;;17.31;52.30
25610;BME280;13479;49.044;8.716;2023-04-29T15:47:47;98978.56;;;17.22;52.67
25610;BME280;13479;49.044;8.716;2023-04-29T15:50:12;98967.94;;;17.06;53.50
25610;BME280;13479;49.044;8.716;2023-04-29T15:52:37;98963.59;;;17.05;53.18
25610;BME280;13479;49.044;8.716;2023-04-29T15:55:04;98967.28;;;17.04;53.39
25610;BME280;13479;49.044;8.716;2023-04-29T15:57:29;98953.56;;;16.98;54.52
25610;BME280;13479;49.044;8.716;2023-04-29T15:59:55;98959.94;;;16.89;54.66
25610;BME280;13479;49.044;8.716;2023-04-29T16:02:20;98962.81;;;16.88;54.85
25610;BME280;13479;49.044;8.716;2023-04-29T16:04:46;98960.94;;;16.96;55.21
25610;BME280;13479;49.044;8.716;2023-04-29T16:07:11;98969.31;;;17.02;54.98
25610;BME280;13479;49.044;8.716;2023-04-29T16:09:36;98982.03;;;17.00;55.18
25610;BME280;13479;49.044;8.716;2023-04-29T16:12:01;98988.69;;;17.12;54.77
25610;BME280;13479;49.044;8.716;2023-04-29T16:14:27;99011.63;;;17.14;54.18
25610;BME280;13479;49.044;8.716;2023-04-29T16:16:52;99031.09;;;17.17;54.38
25610;BME280;13479;49.044;8.716;2023-04-29T16:19:18;99071.13;;;17.18;52.55
25610;BME280;13479;49.044;8.716;2023-04-29T16:21:44;99113.44;;;17.00;53.18
25610;BME280;13479;49.044;8.716;2023-04-29T16:24:10;99079.09;;;16.95;54.29
25610;BME280;13479;49.044;8.716;2023-04-29T16:26:36;99003.19;;;16.86;55.46
25610;BME280;13479;49.044;8.716;2023-04-29T16:29:02;98992.47;;;16.86;55.26
25610;BME280;13479;49.044;8.716;2023-04-29T16:31:27;98986.13;;;16.79;55.81
25610;BME280;13479;49.044;8.716;2023-04-29T16:33:53;98980.09;;;16.77;55.94
25610;BME280;13479;49.044;8.716;2023-04-29T16:36:21;98981.09;;;16.76;55.93
25610;BME280;13479;49.044;8.716;2023-04-29T16:38:46;98982.47;;;16.72;56.17
25610;BME280;13479;49.044;8.716;2023-04-29T16:41:11;98997.53;;;16.81;55.93
25610;BME280;13479;49.044;8.716;2023-04-29T16:43:37;99005.34;;;16.91;55.55
25610;BME280;13479;49.044;8.716;2023-04-29T16:46:02;99032.66;;;16.94;54.94
25610;BME280;13479;49.044;8.716;2023-04-29T16:48:28;99037.88;;;16.88;55.29
25610;BME280;13479;49.044;8.716;2023-04-29T16:50:53;99051.09;;;16.97;54.45
25610;BME280;13479;49.044;8.716;2023-04-29T16:53:19;99078.25;;;16.94;54.60
25610;BME280;13479;49.044;8.716;2023-04-29T16:55:44;99046.41;;;16.91;55.35
25610;BME280;13479;49.044;8.716;2023-04-29T16:58:10;99061.00;;;16.89;54.86
25610;BME280;13479;49.044;8.716;2023-04-29T17:00:36;99087.66;;;16.82;54.26
25610;BME280;13479;49.044;8.716;2023-04-29T17:03:01;99070.94;;;16.72;55.15
25610;BME280;13479;49.044;8.716;2023-04-29T17:05:27;99063.25;;;16.60;54.93
25610;BME280;13479;49.044;8.716;2023-04-29T17:07:53;99066.28;;;16.57;55.12